Terminal Aerodrome Forecast
Issued by NWS Bismarck, ND

Home | Current Version | Previous Version | Text Only | Print | Product List | Glossary On
Versions: 1 2 3 4 5 6 7 8 9 10 11 12 13 14 15 16 17 18 19 20 21 22 23 24 25 26
000
FTUS43 KBIS 221727
TAFBIS
TAF
KBIS 221727Z 2218/2318 24009KT P6SM BKN050 BKN070
     FM222000 28015G25KT P6SM FEW250
     FM222300 33012KT P6SM FEW250
     FM230200 33007KT P6SM FEW250
     FM230900 VRB03KT 5SM BR SCT001 SCT250
     FM231500 VRB03KT P6SM FEW250=

USA.gov is the U.S. government's official web portal to all federal, state and local government web resources and services.